Time;durP1;ratioP1;P1;durP2;ratioP2;P2;SDS_P1;SDS_P2;PMS_P1;PMS_P2;Temp;Humidity;BMP_temperature;BMP_pressure;BME280_temperature;BME280_humidity;BME280_pressure;Samples;Min_cycle;Max_cycle;Signal;HPM_P1;HPM_P2
2023/08/03 00:00:16;;;;;;;4.45;1.20;;;;;;;-146.25;100.00;52337.78;2080305;28;34770;-66
2023/08/03 00:01:18;;;;;;;3.35;1.23;;;;;;;-146.25;100.00;52356.03;2080359;28;33652;-66
2023/08/03 00:02:20;;;;;;;8.38;1.33;;;;;;;-146.25;100.00;52400.63;2081022;28;35550;-65
2023/08/03 00:03:22;;;;;;;3.30;1.20;;;;;;;-146.25;100.00;52358.06;2080815;28;33774;-66
2023/08/03 00:04:24;;;;;;;5.68;1.23;;;;;;;-146.25;100.00;52354.00;2080853;28;36053;-65
2023/08/03 00:05:26;;;;;;;5.30;1.33;;;;;;;-146.25;100.00;52360.09;2080736;28;36348;-65
2023/08/03 00:06:28;;;;;;;4.10;1.17;;;;;;;-146.25;100.00;52390.50;2081074;28;35980;-66
2023/08/03 00:07:32;;;;;;;6.40;1.30;;;;;;;-146.25;100.00;52349.94;2080696;28;38237;-65
2023/08/03 00:08:34;;;;;;;3.85;1.40;;;;;;;-146.25;100.00;52364.13;2088260;28;33297;-66
2023/08/03 00:09:36;;;;;;;5.63;1.30;;;;;;;-146.25;100.00;52356.03;2088060;28;37271;-65
2023/08/03 00:10:38;;;;;;;7.30;1.55;;;;;;;-146.25;100.00;52374.28;2080198;28;36582;-65
2023/08/03 00:11:40;;;;;;;4.15;1.48;;;;;;;-146.25;100.00;52360.09;2080563;28;33970;-65
2023/08/03 00:12:43;;;;;;;5.70;1.33;;;;;;;-146.25;100.00;52404.69;2080636;28;36926;-65
2023/08/03 00:13:45;;;;;;;4.07;1.02;;;;;;;-146.25;100.00;52386.44;2088169;28;39308;-65
2023/08/03 00:14:48;;;;;;;8.18;1.83;;;;;;;-146.25;100.00;52343.88;2088037;28;33603;-65
2023/08/03 00:15:52;;;;;;;12.00;1.67;;;;;;;-146.25;100.00;52360.09;2080571;28;37816;-66
2023/08/03 00:16:54;;;;;;;6.75;1.85;;;;;;;-146.25;100.00;52388.47;2080909;28;33220;-66
2023/08/03 00:17:56;;;;;;;7.32;1.67;;;;;;;-146.25;100.00;52325.63;2080913;28;35499;-65
2023/08/03 00:18:57;;;;;;;8.80;1.60;;;;;;;-146.25;100.00;52388.47;2080854;28;36481;-66
2023/08/03 00:20:00;;;;;;;5.30;1.60;;;;;;;-146.25;100.00;52376.31;2080734;28;35150;-65
2023/08/03 00:21:02;;;;;;;5.65;1.35;;;;;;;-146.25;100.00;52378.34;2080789;28;37808;-66
2023/08/03 00:22:04;;;;;;;7.05;1.70;;;;;;;-146.25;100.00;52362.13;2080906;28;34249;-65
2023/08/03 00:23:06;;;;;;;8.68;1.80;;;;;;;-146.25;100.00;52317.50;2080637;28;34684;-66
2023/08/03 00:24:08;;;;;;;7.18;1.70;;;;;;;-146.25;100.00;52394.56;2080778;28;38094;-65
2023/08/03 00:25:13;;;;;;;6.72;2.00;;;;;;;-146.25;100.00;52356.03;2080763;28;34036;-65
2023/08/03 00:26:15;;;;;;;6.05;1.75;;;;;;;-146.25;100.00;52362.13;2081221;28;20123;-65
2023/08/03 00:27:16;;;;;;;7.20;2.13;;;;;;;-146.25;100.00;52392.53;2080948;28;30745;-65
2023/08/03 00:28:21;;;;;;;6.53;2.00;;;;;;;-146.25;100.00;52378.34;2081471;28;21041;-65
2023/08/03 00:29:22;;;;;;;7.80;2.10;;;;;;;-146.25;100.00;52384.41;2080830;28;33983;-65
2023/08/03 00:30:24;;;;;;;7.38;2.20;;;;;;;-146.25;100.00;52337.78;2081194;28;26054;-65
2023/08/03 00:31:26;;;;;;;11.32;2.10;;;;;;;-146.25;100.00;52370.22;2080436;28;30407;-65
2023/08/03 00:32:28;;;;;;;12.63;2.20;;;;;;;-146.25;100.00;52317.50;2081411;28;20867;-65
2023/08/03 00:33:32;;;;;;;5.45;2.05;;;;;;;-146.25;100.00;52364.13;2082010;28;20081;-65
2023/08/03 00:34:34;;;;;;;6.63;2.10;;;;;;;-146.25;100.00;52404.69;2080015;28;34278;-65
2023/08/03 00:35:36;;;;;;;6.55;2.55;;;;;;;-146.25;100.00;52386.44;2080251;28;28816;-65
2023/08/03 00:36:38;;;;;;;10.23;2.55;;;;;;;-146.25;100.00;52376.31;2080839;28;26946;-65
2023/08/03 00:37:40;;;;;;;10.95;2.60;;;;;;;-146.25;100.00;52386.44;2080235;28;32548;-65
2023/08/03 00:38:42;;;;;;;7.63;2.92;;;;;;;-146.25;100.00;52364.13;2080454;28;20962;-65
2023/08/03 00:39:43;;;;;;;9.07;2.42;;;;;;;-146.25;100.00;52394.56;2080964;28;31316;-66
2023/08/03 00:40:45;;;;;;;7.53;2.50;;;;;;;-146.25;100.00;52384.41;2080706;28;25356;-66
2023/08/03 00:41:47;;;;;;;6.93;2.40;;;;;;;-146.25;100.00;52380.38;2087919;28;27173;-65
2023/08/03 00:42:50;;;;;;;4.80;2.13;;;;;;;-146.25;100.00;52390.50;2080081;28;20172;-65
2023/08/03 00:43:52;;;;;;;4.57;2.40;;;;;;;-146.25;100.00;52372.25;2080300;28;20042;-66
2023/08/03 00:44:54;;;;;;;5.60;2.55;;;;;;;-146.25;100.00;52358.06;2080311;28;29628;-66
2023/08/03 00:45:56;;;;;;;7.55;2.55;;;;;;;-146.25;100.00;52386.44;2080568;28;24157;-66
2023/08/03 00:47:00;;;;;;;8.23;2.50;;;;;;;-146.25;100.00;52370.22;2081423;28;20926;-66
2023/08/03 00:48:02;;;;;;;4.72;2.15;;;;;;;-146.25;100.00;52339.81;2081357;28;20053;-66
2023/08/03 00:49:06;;;;;;;7.55;2.38;;;;;;;-146.25;100.00;52337.78;2088479;28;22879;-65
2023/08/03 00:50:09;;;;;;;8.55;3.00;;;;;;;-146.25;100.00;52370.22;2088519;28;20034;-65
2023/08/03 00:51:11;;;;;;;7.30;2.40;;;;;;;-146.25;100.00;52349.94;2088526;28;26964;-65
2023/08/03 00:52:15;;;;;;;6.80;2.38;;;;;;;-146.25;100.00;52351.97;2087955;28;20164;-65
2023/08/03 00:53:17;;;;;;;4.20;1.98;;;;;;;-146.25;100.00;52386.44;2079960;28;25212;-65
2023/08/03 00:54:21;;;;;;;7.50;2.35;;;;;;;-146.25;100.00;52384.41;2080791;28;20034;-65
2023/08/03 00:55:25;;;;;;;10.15;2.45;;;;;;;-146.25;100.00;52354.00;2080681;28;29047;-65
2023/08/03 00:56:27;;;;;;;5.55;2.20;;;;;;;-146.25;100.00;52412.81;2081023;28;28954;-65
2023/08/03 00:57:29;;;;;;;5.60;2.03;;;;;;;-146.25;100.00;52380.38;2080771;28;29337;-65
2023/08/03 00:58:33;;;;;;;5.28;2.33;;;;;;;-146.25;100.00;52343.88;2080521;28;30668;-65
2023/08/03 00:59:35;;;;;;;6.30;1.88;;;;;;;-146.25;100.00;52351.97;2079880;28;29619;-65
2023/08/03 01:00:37;;;;;;;5.30;1.90;;;;;;;-146.25;100.00;52364.13;2080042;28;28169;-65
2023/08/03 01:01:42;;;;;;;10.65;2.38;;;;;;;-146.25;100.00;52356.03;2080679;28;20094;-65
2023/08/03 01:02:44;;;;;;;8.20;2.20;;;;;;;-146.25;100.00;52394.56;2088183;28;26415;-65
2023/08/03 01:03:49;;;;;;;6.50;2.08;;;;;;;-146.25;100.00;52376.31;2087841;28;29432;-64
2023/08/03 01:04:53;;;;;;;8.82;2.20;;;;;;;-146.25;100.00;52372.25;2088691;28;20132;-65
2023/08/03 01:05:55;;;;;;;6.10;2.00;;;;;;;-146.25;100.00;52368.19;2080085;28;29944;-65
2023/08/03 01:07:00;;;;;;;9.32;2.20;;;;;;;-146.25;100.00;52366.16;2079669;28;27867;-65
2023/08/03 01:08:02;;;;;;;8.02;2.40;;;;;;;-146.25;100.00;52378.34;2088381;28;26024;-65
2023/08/03 01:09:07;;;;;;;6.70;2.28;;;;;;;-146.25;100.00;52354.00;2088340;28;20148;-65
2023/08/03 01:10:09;;;;;;;4.95;2.00;;;;;;;-146.25;100.00;52347.91;2080943;28;28061;-66
2023/08/03 01:11:11;;;;;;;6.63;2.22;;;;;;;-146.25;100.00;52343.88;2087751;28;25628;-66
2023/08/03 01:12:13;;;;;;;6.38;2.33;;;;;;;-146.25;100.00;52368.19;2080306;28;23866;-65
2023/08/03 01:13:16;;;;;;;7.50;1.98;;;;;;;-146.25;100.00;52380.38;2080234;28;20037;-65
2023/08/03 01:14:18;;;;;;;8.65;2.08;;;;;;;-146.25;100.00;52392.53;2080227;28;20169;-66
2023/08/03 01:15:22;;;;;;;6.80;1.90;;;;;;;-146.25;100.00;52386.44;2080113;28;27439;-66
2023/08/03 01:16:26;;;;;;;8.88;1.92;;;;;;;-146.25;100.00;52368.19;2080015;28;27608;-65
2023/08/03 01:17:28;;;;;;;7.75;1.85;;;;;;;-146.25;100.00;52410.78;2072743;28;20057;-65
2023/08/03 01:18:30;;;;;;;6.50;1.60;;;;;;;-146.25;100.00;52372.25;2080542;28;28655;-66
2023/08/03 01:19:32;;;;;;;6.03;1.73;;;;;;;-146.25;100.00;52335.75;2079905;28;23564;-66
2023/08/03 01:20:37;;;;;;;8.68;1.65;;;;;;;-146.25;100.00;52390.50;2080797;28;28259;-66
2023/08/03 01:21:40;;;;;;;5.47;1.33;;;;;;;-146.25;100.00;52374.28;2088033;28;27173;-65
2023/08/03 01:22:43;;;;;;;9.27;1.67;;;;;;;-146.25;100.00;52402.66;2079798;28;20054;-67
2023/08/03 01:23:45;;;;;;;7.38;1.73;;;;;;;-146.25;100.00;52356.03;2072820;28;20973;-66
2023/08/03 01:24:47;;;;;;;10.80;2.05;;;;;;;-146.25;100.00;52372.25;2080013;28;25087;-65
2023/08/03 01:25:49;;;;;;;4.65;1.23;;;;;;;-146.25;100.00;52325.63;2080219;28;20914;-65
2023/08/03 01:26:52;;;;;;;5.75;1.60;;;;;;;-146.25;100.00;52400.63;2087949;28;33724;-66
2023/08/03 01:27:55;;;;;;;10.05;1.65;;;;;;;-146.25;100.00;52386.44;2088011;28;27472;-66
2023/08/03 01:28:56;;;;;;;7.32;1.80;;;;;;;-146.25;100.00;52406.72;2080564;28;27167;-66
2023/08/03 01:29:58;;;;;;;14.05;1.65;;;;;;;-146.25;100.00;52368.19;2080577;28;29712;-67
2023/08/03 01:31:00;;;;;;;10.73;1.48;;;;;;;-146.25;100.00;52368.19;2080320;28;20105;-66
2023/08/03 01:32:04;;;;;;;5.72;1.55;;;;;;;-146.25;100.00;52376.31;2072179;28;20045;-66
2023/08/03 01:33:05;;;;;;;7.40;1.40;;;;;;;-146.25;100.00;52325.63;2079828;28;29109;-66
2023/08/03 01:34:08;;;;;;;7.78;1.77;;;;;;;-146.25;100.00;52368.19;2080558;28;26539;-66
2023/08/03 01:35:10;;;;;;;7.15;1.63;;;;;;;-146.25;100.00;52335.75;2079824;28;32602;-66
2023/08/03 01:36:11;;;;;;;8.95;1.73;;;;;;;-146.25;100.00;52388.47;2080324;28;20193;-66
2023/08/03 01:37:13;;;;;;;5.15;1.38;;;;;;;-146.25;100.00;52339.81;2080207;28;25776;-66
2023/08/03 01:38:15;;;;;;;9.05;1.77;;;;;;;-146.25;100.00;52376.31;2071416;28;32318;-65
2023/08/03 01:39:17;;;;;;;7.40;1.73;;;;;;;-146.25;100.00;52392.53;2071433;28;27186;-66
2023/08/03 01:40:22;;;;;;;3.83;1.55;;;;;;;-146.25;100.00;52327.66;2080383;28;26415;-66
2023/08/03 01:41:24;;;;;;;6.80;1.45;;;;;;;-146.25;100.00;52360.09;2079806;28;20042;-65
2023/08/03 01:42:25;;;;;;;9.52;1.58;;;;;;;-146.25;100.00;52360.09;2079715;28;32665;-66
2023/08/03 01:43:27;;;;;;;6.65;2.05;;;;;;;-146.25;100.00;52358.06;2080043;28;26019;-66
2023/08/03 01:44:30;;;;;;;5.40;1.30;;;;;;;-146.25;100.00;52380.38;2088265;28;20224;-66
2023/08/03 01:45:31;;;;;;;7.65;1.90;;;;;;;-146.25;100.00;52376.31;2087963;28;28762;-66
2023/08/03 01:46:33;;;;;;;6.88;1.23;;;;;;;-146.25;100.00;52384.41;2080351;28;31749;-66
2023/08/03 01:47:35;;;;;;;8.57;1.85;;;;;;;-146.25;100.00;52366.16;2087689;28;33194;-66
2023/08/03 01:48:37;;;;;;;5.13;1.42;;;;;;;-146.25;100.00;52376.31;2080090;28;20046;-65
2023/08/03 01:49:39;;;;;;;6.30;1.52;;;;;;;-146.25;100.00;52356.03;2079878;28;34339;-66
2023/08/03 01:50:40;;;;;;;10.40;1.48;;;;;;;-146.25;100.00;52368.19;2079388;28;34287;-66
2023/08/03 01:51:42;;;;;;;4.50;1.20;;;;;;;-146.25;100.00;52382.38;2079651;28;36234;-65
2023/08/03 01:52:44;;;;;;;6.65;1.40;;;;;;;-146.25;100.00;52354.00;2081475;28;22038;-66
2023/08/03 01:53:46;;;;;;;6.85;1.45;;;;;;;-146.25;100.00;52372.25;2080641;28;27302;-65
2023/08/03 01:54:48;;;;;;;7.47;1.63;;;;;;;-146.25;100.00;52360.09;2080409;28;31580;-65
2023/08/03 01:55:50;;;;;;;7.63;1.98;;;;;;;-146.25;100.00;52372.25;2077824;28;32338;-66
2023/08/03 01:56:55;;;;;;;8.63;2.28;;;;;;;-146.25;100.00;52376.31;2069034;28;20094;-65
2023/08/03 01:57:57;;;;;;;5.30;1.40;;;;;;;-146.25;100.00;52398.59;2064744;28;20184;-64
2023/08/03 01:58:59;;;;;;;8.20;1.88;;;;;;;-146.25;100.00;52402.66;2080090;28;20235;-65
2023/08/03 02:00:03;;;;;;;9.93;1.98;;;;;;;-146.25;100.00;52398.59;2087786;28;33508;-66
2023/08/03 02:01:13;;;;;;;7.72;1.67;;;;;;;-146.25;100.00;52394.56;2080921;28;20065;-66
2023/08/03 02:02:15;;;;;;;7.53;2.00;;;;;;;-146.25;100.00;52374.28;2080208;28;30849;-66
2023/08/03 02:03:17;;;;;;;5.22;1.90;;;;;;;-146.25;100.00;52382.38;2080294;28;31944;-66
2023/08/03 02:04:19;;;;;;;8.38;1.98;;;;;;;-146.25;100.00;52392.53;2080157;28;20050;-66
2023/08/03 02:05:23;;;;;;;10.63;2.13;;;;;;;-146.25;100.00;52396.59;2079905;28;20726;-66
2023/08/03 02:06:24;;;;;;;7.35;1.60;;;;;;;-146.25;100.00;52376.31;2079900;28;20046;-66
2023/08/03 02:07:58;;;;;;;9.18;1.92;;;;;;;-146.25;100.00;52343.88;2080144;28;20927;-65
2023/08/03 02:09:00;;;;;;;8.30;2.00;;;;;;;-146.25;100.00;52360.09;2080105;28;28677;-67
2023/08/03 02:10:02;;;;;;;5.65;1.85;;;;;;;-146.25;100.00;52376.31;2079859;28;25615;-66
2023/08/03 02:11:04;;;;;;;6.18;2.30;;;;;;;-146.25;100.00;52400.63;2071308;28;20046;-66
2023/08/03 02:12:07;;;;;;;8.70;2.25;;;;;;;-146.25;100.00;52390.50;2072084;28;21039;-66
2023/08/03 02:13:09;;;;;;;5.43;1.65;;;;;;;-146.25;100.00;52370.22;2071398;28;30569;-67
2023/08/03 02:14:11;;;;;;;9.90;1.92;;;;;;;-146.25;100.00;52392.53;2072215;28;20046;-66
2023/08/03 02:15:13;;;;;;;11.23;2.10;;;;;;;-146.25;100.00;52339.81;2071036;28;25288;-66
2023/08/03 02:16:16;;;;;;;11.35;2.50;;;;;;;-146.25;100.00;52382.38;2080156;28;20053;-66
2023/08/03 02:17:27;;;;;;;4.93;1.80;;;;;;;-146.25;100.00;52382.38;2072800;28;20046;-66
2023/08/03 02:18:32;;;;;;;7.85;1.80;;;;;;;-146.25;100.00;52406.72;2072110;28;20227;-65
2023/08/03 02:19:35;;;;;;;6.45;1.90;;;;;;;-146.25;100.00;52349.94;2071982;28;20042;-66
2023/08/03 02:20:36;;;;;;;5.00;1.67;;;;;;;-146.25;100.00;52394.56;2071731;28;20911;-65
2023/08/03 02:21:38;;;;;;;6.38;2.10;;;;;;;-146.25;100.00;52384.41;2079481;28;30429;-65
2023/08/03 02:22:40;;;;;;;6.30;2.20;;;;;;;-146.25;100.00;52398.59;2080397;28;28617;-65
2023/08/03 02:23:42;;;;;;;3.75;1.88;;;;;;;-146.25;100.00;52366.16;2080176;28;20908;-65
2023/08/03 02:24:44;;;;;;;8.00;2.00;;;;;;;-146.25;100.00;52374.28;2080915;28;20111;-66
2023/08/03 02:25:46;;;;;;;9.20;2.50;;;;;;;-146.25;100.00;52390.50;2079910;28;20046;-66
2023/08/03 02:26:48;;;;;;;6.93;2.30;;;;;;;-146.25;100.00;52416.84;2079789;28;20034;-65
2023/08/03 02:27:51;;;;;;;6.35;2.17;;;;;;;-146.25;100.00;52368.19;2071021;28;30518;-66
2023/08/03 02:28:55;;;;;;;8.60;2.05;;;;;;;-146.25;100.00;52349.94;2071730;28;20031;-65
2023/08/03 02:29:57;;;;;;;10.98;2.25;;;;;;;-146.25;100.00;52331.69;2079546;28;20160;-66
2023/08/03 02:31:00;;;;;;;7.03;2.22;;;;;;;-146.25;100.00;52376.31;2071813;28;20753;-65
2023/08/03 02:32:12;;;;;;;8.43;2.35;;;;;;;-146.25;100.00;52360.09;2072847;28;20097;-66
2023/08/03 02:33:14;;;;;;;9.30;2.53;;;;;;;-146.25;100.00;52416.84;2079900;28;20888;-64
2023/08/03 02:34:16;;;;;;;10.48;2.60;;;;;;;-146.25;100.00;52376.31;2079671;28;20038;-65
2023/08/03 02:35:18;;;;;;;10.15;2.40;;;;;;;-146.25;100.00;52398.59;2080113;28;20091;-65
2023/08/03 02:36:22;;;;;;;11.32;2.35;;;;;;;-146.25;100.00;52349.94;2071320;28;20038;-66
2023/08/03 02:37:30;;;;;;;7.68;2.30;;;;;;;-146.25;100.00;52388.47;2072168;28;20173;-65
2023/08/03 02:38:33;;;;;;;4.55;2.30;;;;;;;-146.25;100.00;52384.41;2079813;28;20046;-65
2023/08/03 02:39:36;;;;;;;12.80;2.97;;;;;;;-146.25;100.00;52376.31;2071516;28;20077;-65
2023/08/03 02:40:39;;;;;;;7.70;2.40;;;;;;;-146.25;100.00;52386.44;2071484;28;20046;-66
2023/08/03 02:41:41;;;;;;;7.45;2.38;;;;;;;-146.25;100.00;52388.47;2079305;28;20342;-66
2023/08/03 02:42:48;;;;;;;6.75;2.20;;;;;;;-146.25;100.00;52400.63;2079139;28;20052;-66
2023/08/03 02:43:51;;;;;;;5.07;2.15;;;;;;;-146.25;100.00;52380.38;2079634;28;20147;-66
2023/08/03 02:44:59;;;;;;;9.60;2.67;;;;;;;-146.25;100.00;52364.13;2079682;28;20085;-65
2023/08/03 02:46:01;;;;;;;5.35;2.30;;;;;;;-146.25;100.00;52364.13;2079858;28;20165;-66
2023/08/03 02:47:04;;;;;;;7.50;2.22;;;;;;;-146.25;100.00;52374.28;2079645;28;20990;-66
2023/08/03 02:48:09;;;;;;;7.63;2.63;;;;;;;-146.25;100.00;52384.41;2079928;28;24719;-66
2023/08/03 02:49:10;;;;;;;8.63;3.00;;;;;;;-146.25;100.00;52362.13;2071401;28;20170;-66
2023/08/03 02:50:13;;;;;;;3.55;2.28;;;;;;;-146.25;100.00;52380.38;2072050;28;20169;-66
2023/08/03 02:51:15;;;;;;;7.10;2.70;;;;;;;-146.25;100.00;52384.41;2071919;28;23680;-66
2023/08/03 02:52:16;;;;;;;9.00;2.85;;;;;;;-146.25;100.00;52343.88;2071571;28;20166;-66
2023/08/03 02:53:21;;;;;;;6.55;2.63;;;;;;;-146.25;100.00;52372.25;2071931;28;20050;-66
2023/08/03 02:54:25;;;;;;;8.35;2.85;;;;;;;-146.25;100.00;52368.19;2079770;28;20148;-65
2023/08/03 02:55:32;;;;;;;7.00;2.90;;;;;;;-146.25;100.00;52388.47;2080031;28;20121;-65
2023/08/03 02:56:34;;;;;;;8.23;2.70;;;;;;;-146.25;100.00;52384.41;2079251;28;20105;-66
2023/08/03 02:57:37;;;;;;;6.25;2.83;;;;;;;-146.25;100.00;52374.28;2071717;28;20916;-66
2023/08/03 02:58:47;;;;;;;8.00;2.97;;;;;;;-146.25;100.00;52366.16;2072215;28;20129;-66
2023/08/03 03:00:09;;;;;;;10.25;3.20;;;;;;;-146.25;100.00;52390.50;2079484;28;20666;-66
2023/08/03 03:01:11;;;;;;;7.53;3.00;;;;;;;-146.25;100.00;52368.19;2078964;28;20861;-67
2023/08/03 03:02:13;;;;;;;6.85;2.60;;;;;;;-146.25;100.00;52372.25;2063130;28;20081;-66
2023/08/03 03:03:15;;;;;;;7.25;2.90;;;;;;;-146.25;100.00;52390.50;2063361;28;20047;-66
2023/08/03 03:04:17;;;;;;;7.32;3.00;;;;;;;-146.25;100.00;52345.91;2079527;28;20038;-66
2023/08/03 03:05:21;;;;;;;6.78;2.50;;;;;;;-146.25;100.00;52384.41;2070998;28;20823;-66
2023/08/03 03:06:23;;;;;;;5.63;3.22;;;;;;;-146.25;100.00;52388.47;2071796;28;20941;-66
2023/08/03 03:07:27;;;;;;;6.05;2.80;;;;;;;-146.25;100.00;52343.88;2071130;28;20086;-65
2023/08/03 03:08:34;;;;;;;5.50;2.70;;;;;;;-146.25;100.00;52335.75;2063775;28;20050;-65
2023/08/03 03:09:36;;;;;;;5.75;2.90;;;;;;;-146.25;100.00;52394.56;2071839;28;21010;-66
2023/08/03 03:10:40;;;;;;;5.95;2.58;;;;;;;-146.25;100.00;52374.28;2071624;28;20043;-65
2023/08/03 03:11:42;;;;;;;8.00;3.35;;;;;;;-146.25;100.00;52406.72;2071375;28;20038;-66
2023/08/03 03:12:48;;;;;;;6.07;2.72;;;;;;;-146.25;100.00;52368.19;2080063;28;20038;-65
2023/08/03 03:13:53;;;;;;;4.75;2.50;;;;;;;-146.25;100.00;52335.75;2079375;28;20050;-66
2023/08/03 03:14:54;;;;;;;6.85;3.00;;;;;;;-146.25;100.00;52386.44;2079515;28;20957;-66
2023/08/03 03:15:56;;;;;;;6.22;2.83;;;;;;;-146.25;100.00;52376.31;2071042;28;20271;-66
2023/08/03 03:16:58;;;;;;;8.32;2.80;;;;;;;-146.25;100.00;52376.31;2071579;28;20061;-66
2023/08/03 03:18:00;;;;;;;7.25;2.63;;;;;;;-146.25;100.00;52388.47;2071303;28;20866;-66
2023/08/03 03:19:02;;;;;;;5.57;2.40;;;;;;;-146.25;100.00;52360.09;2071632;28;20046;-67
2023/08/03 03:20:05;;;;;;;7.43;3.20;;;;;;;-146.25;100.00;52416.84;2071192;28;20054;-65
2023/08/03 03:21:07;;;;;;;5.38;2.92;;;;;;;-146.25;100.00;52404.69;2063304;28;20050;-66
2023/08/03 03:22:11;;;;;;;5.80;2.75;;;;;;;-146.25;100.00;52384.41;2070527;28;21024;-66
2023/08/03 03:23:16;;;;;;;5.20;2.72;;;;;;;-146.25;100.00;52396.59;2079577;28;20811;-66
2023/08/03 03:24:18;;;;;;;6.25;2.75;;;;;;;-146.25;100.00;52394.56;2079081;28;20899;-66
2023/08/03 03:25:21;;;;;;;5.13;2.88;;;;;;;-146.25;100.00;52343.88;2072310;28;20089;-67
2023/08/03 03:26:22;;;;;;;8.23;2.92;;;;;;;-146.25;100.00;52390.50;2075255;28;33203;-66
2023/08/03 03:27:27;;;;;;;7.80;2.70;;;;;;;-146.25;100.00;52418.88;2079634;28;20065;-65
2023/08/03 03:28:29;;;;;;;6.18;2.88;;;;;;;-146.25;100.00;52382.38;2071813;28;20841;-66
2023/08/03 03:29:32;;;;;;;7.32;2.92;;;;;;;-146.25;100.00;52441.19;2071291;28;20092;-65
2023/08/03 03:30:34;;;;;;;3.65;2.70;;;;;;;-146.25;100.00;52366.16;2071474;28;20140;-66
2023/08/03 03:31:36;;;;;;;5.10;2.95;;;;;;;-146.25;100.00;52358.06;2071235;28;21019;-65
2023/08/03 03:32:39;;;;;;;6.03;3.20;;;;;;;-146.25;100.00;52386.44;2063357;28;20931;-66
2023/08/03 03:33:41;;;;;;;3.97;3.20;;;;;;;-146.25;100.00;52396.59;2072124;28;20042;-65
2023/08/03 03:34:51;;;;;;;7.82;3.22;;;;;;;-146.25;100.00;52394.56;2079652;28;20050;-66
2023/08/03 03:35:54;;;;;;;5.15;3.55;;;;;;;-146.25;100.00;52368.19;2071997;28;20942;-66
2023/08/03 03:36:56;;;;;;;8.65;3.70;;;;;;;-146.25;100.00;52396.59;2070919;28;24435;-66
2023/08/03 03:37:57;;;;;;;7.22;3.95;;;;;;;-146.25;100.00;52392.53;2079489;28;20262;-66
2023/08/03 03:39:02;;;;;;;4.72;3.53;;;;;;;-146.25;100.00;52366.16;2079494;28;21013;-67
2023/08/03 03:40:05;;;;;;;6.47;3.60;;;;;;;-146.25;100.00;52408.75;2063202;28;21027;-66
2023/08/03 03:41:12;;;;;;;6.20;3.92;;;;;;;-146.25;100.00;52386.44;2064860;28;20773;-65
2023/08/03 03:42:20;;;;;;;4.88;4.00;;;;;;;-146.25;100.00;52396.59;2072080;28;20035;-65
2023/08/03 03:43:22;;;;;;;5.60;3.47;;;;;;;-146.25;100.00;52394.56;2078716;28;29883;-65
2023/08/03 03:44:24;;;;;;;7.57;4.07;;;;;;;-146.25;100.00;52396.59;2079998;28;21295;-65
2023/08/03 03:45:25;;;;;;;5.88;3.47;;;;;;;-146.25;100.00;52400.63;2079846;28;31324;-65
2023/08/03 03:46:27;;;;;;;6.75;4.40;;;;;;;-146.25;100.00;52390.50;2079414;28;20152;-69
2023/08/03 03:47:29;;;;;;;12.65;4.22;;;;;;;-146.25;100.00;52384.41;2079054;28;31211;-65
2023/08/03 03:48:33;;;;;;;6.65;3.88;;;;;;;-146.25;100.00;52402.66;2079511;28;21065;-64
2023/08/03 03:49:38;;;;;;;6.50;4.05;;;;;;;-146.25;100.00;52368.19;2079763;28;20214;-65
2023/08/03 03:50:42;;;;;;;4.85;4.05;;;;;;;-146.25;100.00;52431.06;2087459;28;20091;-65
2023/08/03 03:51:44;;;;;;;6.03;3.97;;;;;;;-146.25;100.00;52402.66;2079434;28;20049;-65
2023/08/03 03:52:47;;;;;;;8.75;4.43;;;;;;;-146.25;100.00;52396.59;2070494;28;26807;-66
2023/08/03 03:53:51;;;;;;;5.45;3.78;;;;;;;-146.25;100.00;52396.59;2071536;28;20154;-65
2023/08/03 03:54:53;;;;;;;4.82;4.05;;;;;;;-146.25;100.00;52374.28;2071414;28;20125;-65
2023/08/03 03:55:57;;;;;;;7.70;3.85;;;;;;;-146.25;100.00;52388.47;2071506;28;20051;-65
2023/08/03 03:57:00;;;;;;;7.18;3.80;;;;;;;-146.25;100.00;52351.97;2070650;28;33394;-66
2023/08/03 03:58:05;;;;;;;4.80;3.60;;;;;;;-146.25;100.00;52394.56;2079318;28;20042;-65
2023/08/03 03:59:09;;;;;;;6.43;4.20;;;;;;;-146.25;100.00;52433.06;2078963;28;20046;-65
2023/08/03 04:00:12;;;;;;;4.40;4.00;;;;;;;-146.25;100.00;52374.28;2063377;28;20067;-64
2023/08/03 04:01:17;;;;;;;3.88;3.47;;;;;;;-146.25;100.00;52364.13;2071140;28;20089;-66
2023/08/03 04:02:21;;;;;;;5.82;3.78;;;;;;;-146.25;100.00;52396.59;2079395;28;20903;-64
2023/08/03 04:03:24;;;;;;;4.45;3.72;;;;;;;-146.25;100.00;52392.53;2078700;28;23166;-65
2023/08/03 04:04:26;;;;;;;5.57;4.05;;;;;;;-146.25;100.00;52378.34;2071501;28;20541;-65
2023/08/03 04:05:30;;;;;;;4.68;4.28;;;;;;;-146.25;100.00;52372.25;2078302;28;20046;-65
2023/08/03 04:06:32;;;;;;;4.78;4.22;;;;;;;-146.25;100.00;52380.38;2078514;28;20073;-64
2023/08/03 04:07:33;;;;;;;5.38;3.80;;;;;;;-146.25;100.00;52372.25;2070968;28;20097;-65
2023/08/03 04:08:35;;;;;;;4.90;3.75;;;;;;;-146.25;100.00;52368.19;2071003;28;23250;-65
2023/08/03 04:09:37;;;;;;;4.00;3.60;;;;;;;-146.25;100.00;52372.25;2070067;28;20153;-65
2023/08/03 04:10:39;;;;;;;4.45;3.53;;;;;;;-146.25;100.00;52358.06;2062055;28;29699;-65
2023/08/03 04:11:43;;;;;;;6.35;3.80;;;;;;;-146.25;100.00;52368.19;2069584;28;27650;-65
2023/08/03 04:12:45;;;;;;;5.50;4.40;;;;;;;-146.25;100.00;52356.03;2077885;28;34009;-65
2023/08/03 04:13:46;;;;;;;4.10;3.70;;;;;;;-146.25;100.00;52384.41;2078008;28;29961;-65
2023/08/03 04:14:48;;;;;;;4.00;3.60;;;;;;;-146.25;100.00;52374.28;2078390;28;20062;-65
2023/08/03 04:15:50;;;;;;;3.90;3.60;;;;;;;-146.25;100.00;52386.44;2078283;28;25570;-65
2023/08/03 04:16:52;;;;;;;4.95;3.60;;;;;;;-146.25;100.00;52368.19;2078307;28;20033;-65
2023/08/03 04:17:54;;;;;;;4.30;3.85;;;;;;;-146.25;100.00;52360.09;2078217;28;20109;-64
2023/08/03 04:19:01;;;;;;;3.97;3.60;;;;;;;-146.25;100.00;52408.75;2071661;28;20046;-65
2023/08/03 04:20:05;;;;;;;4.20;3.80;;;;;;;-146.25;100.00;52380.38;2078321;28;30262;-66
2023/08/03 04:21:07;;;;;;;5.10;3.78;;;;;;;-146.25;100.00;52394.56;2071079;28;27503;-64
2023/08/03 04:22:08;;;;;;;5.28;3.83;;;;;;;-146.25;100.00;52400.63;2071394;28;23317;-65
2023/08/03 04:23:11;;;;;;;3.75;3.33;;;;;;;-146.25;100.00;52386.44;2070916;28;20137;-64
2023/08/03 04:24:12;;;;;;;5.55;3.85;;;;;;;-146.25;100.00;52402.66;2070936;28;20038;-65
2023/08/03 04:25:16;;;;;;;4.00;3.70;;;;;;;-146.25;100.00;52392.53;2071814;28;20038;-65
2023/08/03 04:26:23;;;;;;;3.65;3.35;;;;;;;-146.25;100.00;52374.28;2074212;28;20082;-65
2023/08/03 04:27:25;;;;;;;4.10;3.50;;;;;;;-146.25;100.00;52378.34;2071187;28;20042;-65
2023/08/03 04:28:27;;;;;;;4.38;3.55;;;;;;;-146.25;100.00;52388.47;2070331;28;20946;-65
2023/08/03 04:29:33;;;;;;;6.63;3.72;;;;;;;-146.25;100.00;52394.56;2079505;28;20978;-65
2023/08/03 04:30:35;;;;;;;5.18;3.55;;;;;;;-146.25;100.00;52392.53;2079026;28;20049;-65
2023/08/03 04:31:43;;;;;;;4.72;3.90;;;;;;;-146.25;100.00;52358.06;2071010;28;20830;-66
2023/08/03 04:32:45;;;;;;;6.32;4.07;;;;;;;-146.25;100.00;52364.13;2079063;28;23484;-64
2023/08/03 04:33:47;;;;;;;4.75;3.85;;;;;;;-146.25;100.00;52422.94;2079885;28;20615;-65
2023/08/03 04:34:51;;;;;;;4.10;3.45;;;;;;;-146.25;100.00;52380.38;2080519;28;20069;-65
2023/08/03 04:35:53;;;;;;;4.13;3.47;;;;;;;-146.25;100.00;52392.53;2072308;28;20051;-65
2023/08/03 04:36:59;;;;;;;3.97;3.65;;;;;;;-146.25;100.00;52394.56;2080421;28;20108;-65
2023/08/03 04:38:01;;;;;;;4.63;3.92;;;;;;;-146.25;100.00;52392.53;2080897;28;20101;-65
2023/08/03 04:39:05;;;;;;;5.65;4.15;;;;;;;-146.25;100.00;52388.47;2088558;28;20049;-65
2023/08/03 04:40:08;;;;;;;5.50;3.30;;;;;;;-146.25;100.00;52408.75;2080587;28;20061;-64
2023/08/03 04:41:09;;;;;;;4.28;3.88;;;;;;;-146.25;100.00;52418.88;2079833;28;21643;-65
2023/08/03 04:42:15;;;;;;;4.72;4.18;;;;;;;-146.25;100.00;52414.84;2089172;28;20180;-65
2023/08/03 04:43:17;;;;;;;6.53;3.78;;;;;;;-146.25;100.00;52368.19;2079730;28;20057;-65
2023/08/03 04:44:21;;;;;;;5.68;3.90;;;;;;;-146.25;100.00;52370.22;2080232;28;32438;-66
2023/08/03 04:45:24;;;;;;;4.47;3.72;;;;;;;-146.25;100.00;52396.59;2080522;28;20784;-66
2023/08/03 04:46:30;;;;;;;5.53;3.70;;;;;;;-146.25;100.00;52392.53;2080679;28;20038;-65